sensor_id;sensor_type;location;lat;lon;timestamp;P1;durP1;ratioP1;P2;durP2;ratioP2
47219;SDS011;32961;51.936;4.788;2023-02-23T00:01:36;110.38;;;48.67;;
47219;SDS011;32961;51.936;4.788;2023-02-23T00:04:05;103.47;;;48.65;;
47219;SDS011;32961;51.936;4.788;2023-02-23T00:06:34;108.53;;;47.90;;
47219;SDS011;32961;51.936;4.788;2023-02-23T00:09:03;104.05;;;48.15;;
47219;SDS011;32961;51.936;4.788;2023-02-23T00:11:37;101.82;;;48.50;;
47219;SDS011;32961;51.936;4.788;2023-02-23T00:14:05;107.10;;;48.50;;
47219;SDS011;32961;51.936;4.788;2023-02-23T00:16:33;112.25;;;49.85;;
47219;SDS011;32961;51.936;4.788;2023-02-23T00:19:02;103.22;;;47.50;;
47219;SDS011;32961;51.936;4.788;2023-02-23T00:21:33;115.70;;;49.67;;
47219;SDS011;32961;51.936;4.788;2023-02-23T00:24:02;112.78;;;49.17;;
47219;SDS011;32961;51.936;4.788;2023-02-23T00:26:32;103.85;;;47.17;;
47219;SDS011;32961;51.936;4.788;2023-02-23T00:29:02;105.32;;;47.60;;
47219;SDS011;32961;51.936;4.788;2023-02-23T00:31:31;105.72;;;50.25;;
47219;SDS011;32961;51.936;4.788;2023-02-23T00:34:01;99.68;;;47.90;;
47219;SDS011;32961;51.936;4.788;2023-02-23T00:36:30;103.22;;;47.78;;
47219;SDS011;32961;51.936;4.788;2023-02-23T00:39:00;105.72;;;45.45;;
47219;SDS011;32961;51.936;4.788;2023-02-23T00:41:31;107.30;;;50.13;;
47219;SDS011;32961;51.936;4.788;2023-02-23T00:43:59;125.10;;;48.55;;
47219;SDS011;32961;51.936;4.788;2023-02-23T00:46:29;104.18;;;49.13;;
47219;SDS011;32961;51.936;4.788;2023-02-23T00:48:57;103.57;;;46.35;;
47219;SDS011;32961;51.936;4.788;2023-02-23T00:51:26;106.18;;;46.72;;
47219;SDS011;32961;51.936;4.788;2023-02-23T00:53:56;109.82;;;46.63;;
47219;SDS011;32961;51.936;4.788;2023-02-23T00:56:25;112.22;;;47.40;;
47219;SDS011;32961;51.936;4.788;2023-02-23T00:58:53;106.95;;;46.35;;
47219;SDS011;32961;51.936;4.788;2023-02-23T01:01:22;105.25;;;49.33;;
47219;SDS011;32961;51.936;4.788;2023-02-23T01:03:52;93.85;;;46.22;;
47219;SDS011;32961;51.936;4.788;2023-02-23T01:06:20;98.00;;;46.17;;
47219;SDS011;32961;51.936;4.788;2023-02-23T01:08:49;110.90;;;49.40;;
47219;SDS011;32961;51.936;4.788;2023-02-23T01:11:22;101.32;;;48.50;;
47219;SDS011;32961;51.936;4.788;2023-02-23T01:13:54;107.78;;;47.58;;
47219;SDS011;32961;51.936;4.788;2023-02-23T01:16:23;98.38;;;48.17;;
47219;SDS011;32961;51.936;4.788;2023-02-23T01:18:54;104.95;;;46.25;;
47219;SDS011;32961;51.936;4.788;2023-02-23T01:21:24;92.60;;;46.47;;
47219;SDS011;32961;51.936;4.788;2023-02-23T01:23:54;102.47;;;45.45;;
47219;SDS011;32961;51.936;4.788;2023-02-23T01:26:25;95.55;;;45.38;;
47219;SDS011;32961;51.936;4.788;2023-02-23T01:28:56;107.28;;;47.58;;
47219;SDS011;32961;51.936;4.788;2023-02-23T01:31:27;111.13;;;45.72;;
47219;SDS011;32961;51.936;4.788;2023-02-23T01:33:58;98.13;;;44.33;;
47219;SDS011;32961;51.936;4.788;2023-02-23T01:36:28;115.50;;;46.47;;
47219;SDS011;32961;51.936;4.788;2023-02-23T01:38:59;103.00;;;47.38;;
47219;SDS011;32961;51.936;4.788;2023-02-23T01:41:27;116.88;;;46.80;;
47219;SDS011;32961;51.936;4.788;2023-02-23T01:43:59;90.40;;;43.80;;
47219;SDS011;32961;51.936;4.788;2023-02-23T01:46:30;91.57;;;44.50;;
47219;SDS011;32961;51.936;4.788;2023-02-23T01:49:00;101.60;;;44.38;;
47219;SDS011;32961;51.936;4.788;2023-02-23T01:51:31;96.63;;;45.72;;
47219;SDS011;32961;51.936;4.788;2023-02-23T01:54:04;106.07;;;44.13;;
47219;SDS011;32961;51.936;4.788;2023-02-23T01:56:39;97.05;;;46.22;;
47219;SDS011;32961;51.936;4.788;2023-02-23T01:59:08;99.70;;;44.08;;
47219;SDS011;32961;51.936;4.788;2023-02-23T02:01:40;97.32;;;44.53;;
47219;SDS011;32961;51.936;4.788;2023-02-23T02:04:10;99.53;;;43.40;;
47219;SDS011;32961;51.936;4.788;2023-02-23T02:06:42;107.55;;;45.50;;
47219;SDS011;32961;51.936;4.788;2023-02-23T02:09:13;96.53;;;44.47;;
47219;SDS011;32961;51.936;4.788;2023-02-23T02:11:44;96.97;;;44.63;;
47219;SDS011;32961;51.936;4.788;2023-02-23T02:14:20;94.22;;;43.83;;
47219;SDS011;32961;51.936;4.788;2023-02-23T02:16:52;97.22;;;44.83;;
47219;SDS011;32961;51.936;4.788;2023-02-23T02:22:45;98.93;;;45.80;;
47219;SDS011;32961;51.936;4.788;2023-02-23T02:25:43;98.47;;;43.72;;
47219;SDS011;32961;51.936;4.788;2023-02-23T02:34:38;110.53;;;45.55;;
47219;SDS011;32961;51.936;4.788;2023-02-23T02:37:27;97.63;;;42.17;;
47219;SDS011;32961;51.936;4.788;2023-02-23T02:40:06;107.93;;;43.35;;
47219;SDS011;32961;51.936;4.788;2023-02-23T02:42:58;93.13;;;41.90;;
47219;SDS011;32961;51.936;4.788;2023-02-23T02:45:36;96.85;;;43.33;;
47219;SDS011;32961;51.936;4.788;2023-02-23T02:48:12;92.32;;;41.13;;
47219;SDS011;32961;51.936;4.788;2023-02-23T02:50:48;97.88;;;43.10;;
47219;SDS011;32961;51.936;4.788;2023-02-23T02:53:24;107.35;;;44.38;;
47219;SDS011;32961;51.936;4.788;2023-02-23T02:55:58;84.20;;;39.63;;
47219;SDS011;32961;51.936;4.788;2023-02-23T02:58:30;102.05;;;41.30;;
47219;SDS011;32961;51.936;4.788;2023-02-23T03:01:04;97.65;;;41.45;;
47219;SDS011;32961;51.936;4.788;2023-02-23T03:03:51;94.75;;;42.67;;
47219;SDS011;32961;51.936;4.788;2023-02-23T03:06:37;98.45;;;40.58;;
47219;SDS011;32961;51.936;4.788;2023-02-23T03:09:32;99.80;;;41.80;;
47219;SDS011;32961;51.936;4.788;2023-02-23T03:12:26;91.30;;;42.28;;
47219;SDS011;32961;51.936;4.788;2023-02-23T03:15:23;93.93;;;42.33;;
47219;SDS011;32961;51.936;4.788;2023-02-23T03:18:28;88.38;;;39.15;;
47219;SDS011;32961;51.936;4.788;2023-02-23T03:21:24;87.45;;;40.28;;
47219;SDS011;32961;51.936;4.788;2023-02-23T03:24:14;90.80;;;39.38;;
47219;SDS011;32961;51.936;4.788;2023-02-23T03:27:10;87.93;;;39.38;;
47219;SDS011;32961;51.936;4.788;2023-02-23T03:30:03;95.78;;;38.38;;
47219;SDS011;32961;51.936;4.788;2023-02-23T03:32:55;86.32;;;39.15;;
47219;SDS011;32961;51.936;4.788;2023-02-23T03:35:47;81.45;;;38.90;;
47219;SDS011;32961;51.936;4.788;2023-02-23T03:38:37;92.10;;;41.13;;
47219;SDS011;32961;51.936;4.788;2023-02-23T03:41:29;84.93;;;39.15;;
47219;SDS011;32961;51.936;4.788;2023-02-23T03:44:20;94.35;;;40.03;;
47219;SDS011;32961;51.936;4.788;2023-02-23T03:47:11;83.38;;;40.35;;
47219;SDS011;32961;51.936;4.788;2023-02-23T03:49:59;105.25;;;41.80;;
47219;SDS011;32961;51.936;4.788;2023-02-23T03:52:50;120.03;;;42.83;;
47219;SDS011;32961;51.936;4.788;2023-02-23T03:55:41;101.75;;;41.75;;
47219;SDS011;32961;51.936;4.788;2023-02-23T03:58:30;111.82;;;40.53;;
47219;SDS011;32961;51.936;4.788;2023-02-23T04:01:21;86.80;;;38.83;;
47219;SDS011;32961;51.936;4.788;2023-02-23T04:04:10;101.43;;;40.17;;
47219;SDS011;32961;51.936;4.788;2023-02-23T04:06:56;109.43;;;40.22;;
47219;SDS011;32961;51.936;4.788;2023-02-23T04:09:44;87.50;;;38.95;;
47219;SDS011;32961;51.936;4.788;2023-02-23T04:12:31;88.18;;;37.50;;
47219;SDS011;32961;51.936;4.788;2023-02-23T04:15:22;92.68;;;39.03;;
47219;SDS011;32961;51.936;4.788;2023-02-23T04:17:55;84.50;;;38.58;;
47219;SDS011;32961;51.936;4.788;2023-02-23T04:20:23;87.15;;;37.55;;
47219;SDS011;32961;51.936;4.788;2023-02-23T04:22:51;84.75;;;39.35;;
47219;SDS011;32961;51.936;4.788;2023-02-23T04:25:19;90.28;;;39.85;;
47219;SDS011;32961;51.936;4.788;2023-02-23T04:27:48;84.05;;;39.22;;
47219;SDS011;32961;51.936;4.788;2023-02-23T04:30:16;85.93;;;40.20;;
47219;SDS011;32961;51.936;4.788;2023-02-23T04:32:45;100.57;;;41.20;;
47219;SDS011;32961;51.936;4.788;2023-02-23T04:35:15;94.82;;;41.05;;
47219;SDS011;32961;51.936;4.788;2023-02-23T04:37:43;90.85;;;39.15;;
47219;SDS011;32961;51.936;4.788;2023-02-23T04:40:11;94.43;;;39.58;;
47219;SDS011;32961;51.936;4.788;2023-02-23T04:42:39;92.32;;;38.90;;
47219;SDS011;32961;51.936;4.788;2023-02-23T04:45:08;85.47;;;38.50;;
47219;SDS011;32961;51.936;4.788;2023-02-23T04:47:36;92.85;;;40.25;;
47219;SDS011;32961;51.936;4.788;2023-02-23T04:50:05;95.43;;;40.53;;
47219;SDS011;32961;51.936;4.788;2023-02-23T04:52:35;81.03;;;37.65;;
47219;SDS011;32961;51.936;4.788;2023-02-23T04:55:04;101.35;;;39.63;;
47219;SDS011;32961;51.936;4.788;2023-02-23T04:57:33;91.57;;;39.55;;
47219;SDS011;32961;51.936;4.788;2023-02-23T05:00:02;96.78;;;38.85;;
47219;SDS011;32961;51.936;4.788;2023-02-23T05:02:30;92.05;;;38.15;;
47219;SDS011;32961;51.936;4.788;2023-02-23T05:04:58;97.25;;;39.55;;
47219;SDS011;32961;51.936;4.788;2023-02-23T05:07:26;97.43;;;40.40;;
47219;SDS011;32961;51.936;4.788;2023-02-23T05:09:55;111.90;;;41.15;;
47219;SDS011;32961;51.936;4.788;2023-02-23T05:12:23;99.68;;;39.15;;
47219;SDS011;32961;51.936;4.788;2023-02-23T05:14:51;97.20;;;38.70;;
47219;SDS011;32961;51.936;4.788;2023-02-23T05:17:18;87.28;;;37.78;;
47219;SDS011;32961;51.936;4.788;2023-02-23T05:19:46;84.43;;;37.08;;
47219;SDS011;32961;51.936;4.788;2023-02-23T05:22:14;90.97;;;38.17;;
47219;SDS011;32961;51.936;4.788;2023-02-23T05:24:42;104.07;;;39.75;;
47219;SDS011;32961;51.936;4.788;2023-02-23T05:27:11;93.00;;;36.63;;
47219;SDS011;32961;51.936;4.788;2023-02-23T05:29:39;110.90;;;37.85;;
47219;SDS011;32961;51.936;4.788;2023-02-23T05:32:07;104.90;;;39.35;;
47219;SDS011;32961;51.936;4.788;2023-02-23T05:34:35;87.50;;;38.38;;
47219;SDS011;32961;51.936;4.788;2023-02-23T05:37:04;102.38;;;39.50;;
47219;SDS011;32961;51.936;4.788;2023-02-23T05:39:32;114.28;;;37.65;;
47219;SDS011;32961;51.936;4.788;2023-02-23T05:42:00;96.43;;;37.83;;
47219;SDS011;32961;51.936;4.788;2023-02-23T05:44:29;88.40;;;37.38;;
47219;SDS011;32961;51.936;4.788;2023-02-23T05:46:57;101.15;;;36.90;;
47219;SDS011;32961;51.936;4.788;2023-02-23T05:49:24;85.35;;;35.72;;
47219;SDS011;32961;51.936;4.788;2023-02-23T05:51:52;92.63;;;37.05;;
47219;SDS011;32961;51.936;4.788;2023-02-23T05:54:20;104.93;;;37.40;;
47219;SDS011;32961;51.936;4.788;2023-02-23T05:56:48;89.10;;;35.95;;
47219;SDS011;32961;51.936;4.788;2023-02-23T05:59:16;84.72;;;38.47;;
47219;SDS011;32961;51.936;4.788;2023-02-23T06:01:45;91.50;;;39.88;;
47219;SDS011;32961;51.936;4.788;2023-02-23T06:04:13;101.82;;;38.45;;
47219;SDS011;32961;51.936;4.788;2023-02-23T06:06:41;104.25;;;37.42;;
47219;SDS011;32961;51.936;4.788;2023-02-23T06:09:08;90.68;;;36.25;;
47219;SDS011;32961;51.936;4.788;2023-02-23T06:11:36;82.95;;;35.13;;
47219;SDS011;32961;51.936;4.788;2023-02-23T06:14:04;112.63;;;36.75;;
47219;SDS011;32961;51.936;4.788;2023-02-23T06:16:32;91.97;;;36.42;;
47219;SDS011;32961;51.936;4.788;2023-02-23T06:19:01;109.43;;;42.47;;
47219;SDS011;32961;51.936;4.788;2023-02-23T06:21:29;98.28;;;36.00;;
47219;SDS011;32961;51.936;4.788;2023-02-23T06:23:57;99.53;;;34.85;;
47219;SDS011;32961;51.936;4.788;2023-02-23T06:26:26;130.95;;;39.05;;
47219;SDS011;32961;51.936;4.788;2023-02-23T06:28:54;183.85;;;38.88;;
47219;SDS011;32961;51.936;4.788;2023-02-23T06:31:22;189.15;;;37.70;;
47219;SDS011;32961;51.936;4.788;2023-02-23T06:33:50;224.82;;;38.70;;
47219;SDS011;32961;51.936;4.788;2023-02-23T06:36:19;74.22;;;33.30;;
47219;SDS011;32961;51.936;4.788;2023-02-23T06:38:47;70.22;;;31.23;;
47219;SDS011;32961;51.936;4.788;2023-02-23T06:41:14;70.82;;;31.80;;
47219;SDS011;32961;51.936;4.788;2023-02-23T06:43:43;87.18;;;32.17;;
47219;SDS011;32961;51.936;4.788;2023-02-23T06:46:11;79.90;;;30.65;;
47219;SDS011;32961;51.936;4.788;2023-02-23T06:48:39;64.50;;;30.05;;
47219;SDS011;32961;51.936;4.788;2023-02-23T06:51:06;92.13;;;30.33;;
47219;SDS011;32961;51.936;4.788;2023-02-23T06:53:36;110.80;;;33.25;;
47219;SDS011;32961;51.936;4.788;2023-02-23T06:56:04;127.32;;;32.25;;
47219;SDS011;32961;51.936;4.788;2023-02-23T06:58:32;92.75;;;29.98;;
47219;SDS011;32961;51.936;4.788;2023-02-23T07:01:00;68.13;;;29.23;;
47219;SDS011;32961;51.936;4.788;2023-02-23T07:03:28;77.82;;;29.95;;
47219;SDS011;32961;51.936;4.788;2023-02-23T07:05:56;77.70;;;29.50;;
47219;SDS011;32961;51.936;4.788;2023-02-23T07:08:24;68.07;;;30.17;;
47219;SDS011;32961;51.936;4.788;2023-02-23T07:10:53;63.15;;;27.10;;
47219;SDS011;32961;51.936;4.788;2023-02-23T07:13:22;92.60;;;30.85;;
47219;SDS011;32961;51.936;4.788;2023-02-23T07:15:55;119.75;;;31.20;;
47219;SDS011;32961;51.936;4.788;2023-02-23T07:18:23;96.83;;;29.73;;
47219;SDS011;32961;51.936;4.788;2023-02-23T07:20:51;72.13;;;30.15;;
47219;SDS011;32961;51.936;4.788;2023-02-23T07:23:19;75.10;;;29.23;;
47219;SDS011;32961;51.936;4.788;2023-02-23T07:25:48;89.30;;;30.70;;
47219;SDS011;32961;51.936;4.788;2023-02-23T07:28:17;78.93;;;32.30;;
47219;SDS011;32961;51.936;4.788;2023-02-23T07:30:46;99.75;;;34.63;;
47219;SDS011;32961;51.936;4.788;2023-02-23T07:33:15;93.40;;;33.22;;
47219;SDS011;32961;51.936;4.788;2023-02-23T07:35:43;88.00;;;33.53;;
47219;SDS011;32961;51.936;4.788;2023-02-23T07:38:11;100.00;;;36.20;;
47219;SDS011;32961;51.936;4.788;2023-02-23T07:40:39;103.80;;;36.20;;
47219;SDS011;32961;51.936;4.788;2023-02-23T07:43:07;99.80;;;36.47;;
47219;SDS011;32961;51.936;4.788;2023-02-23T07:45:36;125.57;;;40.13;;
47219;SDS011;32961;51.936;4.788;2023-02-23T07:48:04;115.57;;;38.97;;
47219;SDS011;32961;51.936;4.788;2023-02-23T07:50:32;114.88;;;39.75;;
47219;SDS011;32961;51.936;4.788;2023-02-23T07:53:00;108.40;;;39.70;;
47219;SDS011;32961;51.936;4.788;2023-02-23T07:55:28;111.75;;;40.45;;
47219;SDS011;32961;51.936;4.788;2023-02-23T07:57:56;114.65;;;40.08;;
47219;SDS011;32961;51.936;4.788;2023-02-23T08:00:24;121.82;;;41.85;;
47219;SDS011;32961;51.936;4.788;2023-02-23T08:02:53;119.18;;;41.05;;
47219;SDS011;32961;51.936;4.788;2023-02-23T08:05:21;106.43;;;37.63;;
47219;SDS011;32961;51.936;4.788;2023-02-23T08:07:51;116.88;;;40.45;;
47219;SDS011;32961;51.936;4.788;2023-02-23T08:10:19;105.70;;;39.88;;
47219;SDS011;32961;51.936;4.788;2023-02-23T08:12:47;116.90;;;39.38;;
47219;SDS011;32961;51.936;4.788;2023-02-23T08:15:15;106.07;;;38.20;;
47219;SDS011;32961;51.936;4.788;2023-02-23T08:17:43;114.90;;;39.53;;
47219;SDS011;32961;51.936;4.788;2023-02-23T08:20:12;98.53;;;37.10;;
47219;SDS011;32961;51.936;4.788;2023-02-23T08:22:40;107.93;;;37.55;;
47219;SDS011;32961;51.936;4.788;2023-02-23T08:25:15;114.97;;;39.75;;
47219;SDS011;32961;51.936;4.788;2023-02-23T08:27:43;104.07;;;39.30;;
47219;SDS011;32961;51.936;4.788;2023-02-23T08:30:11;96.88;;;37.40;;
47219;SDS011;32961;51.936;4.788;2023-02-23T08:32:40;105.03;;;38.45;;
47219;SDS011;32961;51.936;4.788;2023-02-23T08:35:08;92.78;;;36.45;;
47219;SDS011;32961;51.936;4.788;2023-02-23T08:37:38;88.38;;;35.45;;
47219;SDS011;32961;51.936;4.788;2023-02-23T08:40:07;101.57;;;37.67;;
47219;SDS011;32961;51.936;4.788;2023-02-23T08:42:36;93.97;;;37.17;;
47219;SDS011;32961;51.936;4.788;2023-02-23T08:45:04;99.50;;;37.55;;
47219;SDS011;32961;51.936;4.788;2023-02-23T08:47:33;100.30;;;39.08;;
47219;SDS011;32961;51.936;4.788;2023-02-23T08:50:02;92.13;;;36.13;;
47219;SDS011;32961;51.936;4.788;2023-02-23T08:52:31;94.55;;;35.17;;
47219;SDS011;32961;51.936;4.788;2023-02-23T08:55:00;88.80;;;33.88;;
47219;SDS011;32961;51.936;4.788;2023-02-23T08:57:28;75.38;;;33.05;;
47219;SDS011;32961;51.936;4.788;2023-02-23T08:59:58;81.65;;;33.15;;
47219;SDS011;32961;51.936;4.788;2023-02-23T09:02:26;73.68;;;32.70;;
47219;SDS011;32961;51.936;4.788;2023-02-23T09:04:55;71.68;;;31.15;;
47219;SDS011;32961;51.936;4.788;2023-02-23T09:07:23;74.72;;;31.00;;
47219;SDS011;32961;51.936;4.788;2023-02-23T09:09:54;74.47;;;30.77;;
47219;SDS011;32961;51.936;4.788;2023-02-23T09:12:23;73.93;;;30.88;;
47219;SDS011;32961;51.936;4.788;2023-02-23T09:14:51;71.30;;;31.73;;
47219;SDS011;32961;51.936;4.788;2023-02-23T09:17:19;61.60;;;28.08;;
47219;SDS011;32961;51.936;4.788;2023-02-23T09:19:48;64.13;;;27.88;;
47219;SDS011;32961;51.936;4.788;2023-02-23T09:22:16;64.95;;;26.95;;
47219;SDS011;32961;51.936;4.788;2023-02-23T09:24:45;61.03;;;25.95;;
47219;SDS011;32961;51.936;4.788;2023-02-23T09:27:12;56.45;;;24.75;;
47219;SDS011;32961;51.936;4.788;2023-02-23T09:29:42;44.65;;;19.48;;
47219;SDS011;32961;51.936;4.788;2023-02-23T09:32:09;40.10;;;20.63;;
47219;SDS011;32961;51.936;4.788;2023-02-23T09:34:38;34.33;;;19.08;;
47219;SDS011;32961;51.936;4.788;2023-02-23T09:37:06;36.55;;;17.52;;
47219;SDS011;32961;51.936;4.788;2023-02-23T09:39:34;38.30;;;18.30;;
47219;SDS011;32961;51.936;4.788;2023-02-23T09:45:04;34.92;;;18.27;;
47219;SDS011;32961;51.936;4.788;2023-02-23T09:47:44;35.78;;;18.50;;
47219;SDS011;32961;51.936;4.788;2023-02-23T09:50:24;33.43;;;17.83;;
47219;SDS011;32961;51.936;4.788;2023-02-23T09:52:56;33.20;;;17.20;;
47219;SDS011;32961;51.936;4.788;2023-02-23T09:57:57;28.85;;;16.33;;
47219;SDS011;32961;51.936;4.788;2023-02-23T10:00:35;28.63;;;16.05;;
47219;SDS011;32961;51.936;4.788;2023-02-23T10:03:16;30.30;;;17.15;;
47219;SDS011;32961;51.936;4.788;2023-02-23T10:05:46;32.63;;;16.98;;
47219;SDS011;32961;51.936;4.788;2023-02-23T10:08:24;33.13;;;17.48;;
47219;SDS011;32961;51.936;4.788;2023-02-23T10:11:06;33.85;;;17.70;;
47219;SDS011;32961;51.936;4.788;2023-02-23T10:13:42;28.70;;;16.00;;
47219;SDS011;32961;51.936;4.788;2023-02-23T10:16:23;31.23;;;17.33;;
47219;SDS011;32961;51.936;4.788;2023-02-23T10:19:03;24.20;;;14.95;;
47219;SDS011;32961;51.936;4.788;2023-02-23T10:21:38;32.50;;;15.68;;
47219;SDS011;32961;51.936;4.788;2023-02-23T10:24:09;22.63;;;14.00;;
47219;SDS011;32961;51.936;4.788;2023-02-23T10:26:41;26.40;;;14.68;;
47219;SDS011;32961;51.936;4.788;2023-02-23T10:29:17;24.23;;;15.13;;
47219;SDS011;32961;51.936;4.788;2023-02-23T10:31:53;22.92;;;14.20;;
47219;SDS011;32961;51.936;4.788;2023-02-23T10:34:23;27.30;;;15.50;;
47219;SDS011;32961;51.936;4.788;2023-02-23T10:36:56;25.35;;;14.90;;
47219;SDS011;32961;51.936;4.788;2023-02-23T10:39:27;28.38;;;14.32;;
47219;SDS011;32961;51.936;4.788;2023-02-23T10:41:56;19.95;;;12.55;;
47219;SDS011;32961;51.936;4.788;2023-02-23T10:44:26;27.40;;;13.35;;
47219;SDS011;32961;51.936;4.788;2023-02-23T10:46:57;22.83;;;13.65;;
47219;SDS011;32961;51.936;4.788;2023-02-23T10:49:31;27.00;;;14.00;;
47219;SDS011;32961;51.936;4.788;2023-02-23T10:52:07;22.33;;;13.57;;
47219;SDS011;32961;51.936;4.788;2023-02-23T10:54:40;24.33;;;13.60;;
47219;SDS011;32961;51.936;4.788;2023-02-23T10:57:11;25.42;;;13.20;;
47219;SDS011;32961;51.936;4.788;2023-02-23T11:02:47;24.83;;;12.52;;
47219;SDS011;32961;51.936;4.788;2023-02-23T11:05:26;29.70;;;12.68;;
47219;SDS011;32961;51.936;4.788;2023-02-23T11:10:54;23.23;;;12.95;;
47219;SDS011;32961;51.936;4.788;2023-02-23T11:13:38;27.10;;;12.70;;
47219;SDS011;32961;51.936;4.788;2023-02-23T11:16:09;23.23;;;12.00;;
47219;SDS011;32961;51.936;4.788;2023-02-23T11:18:41;22.25;;;12.57;;
47219;SDS011;32961;51.936;4.788;2023-02-23T11:21:17;21.65;;;12.45;;
47219;SDS011;32961;51.936;4.788;2023-02-23T11:23:50;17.77;;;11.05;;
47219;SDS011;32961;51.936;4.788;2023-02-23T11:26:29;22.00;;;11.70;;
47219;SDS011;32961;51.936;4.788;2023-02-23T11:29:03;19.58;;;11.27;;
47219;SDS011;32961;51.936;4.788;2023-02-23T11:31:44;21.52;;;11.02;;
47219;SDS011;32961;51.936;4.788;2023-02-23T11:36:58;24.50;;;11.70;;
47219;SDS011;32961;51.936;4.788;2023-02-23T11:39:28;23.25;;;11.65;;
47219;SDS011;32961;51.936;4.788;2023-02-23T11:42:03;20.73;;;11.45;;
47219;SDS011;32961;51.936;4.788;2023-02-23T11:44:40;17.80;;;11.55;;
47219;SDS011;32961;51.936;4.788;2023-02-23T11:47:12;19.45;;;11.30;;
47219;SDS011;32961;51.936;4.788;2023-02-23T11:49:43;20.85;;;11.00;;
47219;SDS011;32961;51.936;4.788;2023-02-23T11:52:14;19.75;;;11.25;;
47219;SDS011;32961;51.936;4.788;2023-02-23T11:54:48;24.25;;;11.65;;
47219;SDS011;32961;51.936;4.788;2023-02-23T11:57:19;20.95;;;11.13;;
47219;SDS011;32961;51.936;4.788;2023-02-23T11:59:48;26.58;;;12.25;;
47219;SDS011;32961;51.936;4.788;2023-02-23T12:02:19;23.13;;;11.77;;
47219;SDS011;32961;51.936;4.788;2023-02-23T12:04:52;21.75;;;12.15;;
47219;SDS011;32961;51.936;4.788;2023-02-23T12:07:31;23.42;;;12.00;;
47219;SDS011;32961;51.936;4.788;2023-02-23T12:10:10;23.10;;;13.52;;
47219;SDS011;32961;51.936;4.788;2023-02-23T12:12:43;25.48;;;15.20;;
47219;SDS011;32961;51.936;4.788;2023-02-23T12:15:24;21.58;;;12.23;;
47219;SDS011;32961;51.936;4.788;2023-02-23T12:17:57;21.45;;;12.88;;
47219;SDS011;32961;51.936;4.788;2023-02-23T12:20:30;23.17;;;12.75;;
47219;SDS011;32961;51.936;4.788;2023-02-23T12:23:05;22.65;;;13.50;;
47219;SDS011;32961;51.936;4.788;2023-02-23T12:25:37;24.20;;;13.70;;
47219;SDS011;32961;51.936;4.788;2023-02-23T12:28:09;29.95;;;15.02;;
47219;SDS011;32961;51.936;4.788;2023-02-23T12:30:45;25.95;;;15.50;;
47219;SDS011;32961;51.936;4.788;2023-02-23T12:33:19;28.75;;;16.05;;
47219;SDS011;32961;51.936;4.788;2023-02-23T12:35:54;33.50;;;14.95;;
47219;SDS011;32961;51.936;4.788;2023-02-23T12:38:27;31.98;;;16.42;;
47219;SDS011;32961;51.936;4.788;2023-02-23T12:41:02;25.60;;;15.00;;
47219;SDS011;32961;51.936;4.788;2023-02-23T12:43:36;24.83;;;14.50;;
47219;SDS011;32961;51.936;4.788;2023-02-23T12:46:08;26.45;;;14.02;;
47219;SDS011;32961;51.936;4.788;2023-02-23T12:48:43;27.58;;;14.60;;
47219;SDS011;32961;51.936;4.788;2023-02-23T12:51:20;24.23;;;13.10;;
47219;SDS011;32961;51.936;4.788;2023-02-23T12:53:53;26.35;;;13.80;;
47219;SDS011;32961;51.936;4.788;2023-02-23T12:56:25;27.85;;;14.77;;
47219;SDS011;32961;51.936;4.788;2023-02-23T13:02:04;28.52;;;14.43;;
47219;SDS011;32961;51.936;4.788;2023-02-23T13:04:47;32.10;;;16.17;;
47219;SDS011;32961;51.936;4.788;2023-02-23T13:07:36;41.35;;;16.77;;
47219;SDS011;32961;51.936;4.788;2023-02-23T13:10:11;26.75;;;15.45;;
47219;SDS011;32961;51.936;4.788;2023-02-23T13:12:49;31.92;;;15.65;;
47219;SDS011;32961;51.936;4.788;2023-02-23T13:15:31;28.23;;;14.60;;
47219;SDS011;32961;51.936;4.788;2023-02-23T13:18:10;29.45;;;15.48;;
47219;SDS011;32961;51.936;4.788;2023-02-23T13:20:49;32.35;;;15.23;;
47219;SDS011;32961;51.936;4.788;2023-02-23T13:23:25;28.50;;;13.98;;
47219;SDS011;32961;51.936;4.788;2023-02-23T13:26:00;32.15;;;16.45;;
47219;SDS011;32961;51.936;4.788;2023-02-23T13:28:39;28.45;;;15.35;;
47219;SDS011;32961;51.936;4.788;2023-02-23T13:31:21;32.78;;;16.52;;
47219;SDS011;32961;51.936;4.788;2023-02-23T13:33:53;32.47;;;16.15;;
47219;SDS011;32961;51.936;4.788;2023-02-23T13:36:24;27.90;;;15.20;;
47219;SDS011;32961;51.936;4.788;2023-02-23T13:39:09;34.55;;;19.38;;
47219;SDS011;32961;51.936;4.788;2023-02-23T13:41:56;42.00;;;18.60;;
47219;SDS011;32961;51.936;4.788;2023-02-23T13:44:38;29.90;;;15.10;;
47219;SDS011;32961;51.936;4.788;2023-02-23T13:47:16;29.63;;;15.15;;
47219;SDS011;32961;51.936;4.788;2023-02-23T13:49:58;24.90;;;14.80;;
47219;SDS011;32961;51.936;4.788;2023-02-23T13:52:31;31.92;;;14.85;;
47219;SDS011;32961;51.936;4.788;2023-02-23T13:55:28;29.60;;;15.50;;
47219;SDS011;32961;51.936;4.788;2023-02-23T13:58:15;32.85;;;16.33;;
47219;SDS011;32961;51.936;4.788;2023-02-23T14:00:49;29.52;;;14.93;;
47219;SDS011;32961;51.936;4.788;2023-02-23T14:03:21;25.17;;;14.38;;
47219;SDS011;32961;51.936;4.788;2023-02-23T14:05:54;27.52;;;15.63;;
47219;SDS011;32961;51.936;4.788;2023-02-23T14:08:27;24.15;;;12.45;;
47219;SDS011;32961;51.936;4.788;2023-02-23T14:11:02;24.80;;;13.05;;
47219;SDS011;32961;51.936;4.788;2023-02-23T14:13:33;20.52;;;11.30;;
47219;SDS011;32961;51.936;4.788;2023-02-23T14:18:56;27.63;;;13.68;;
47219;SDS011;32961;51.936;4.788;2023-02-23T14:21:34;27.98;;;15.45;;
47219;SDS011;32961;51.936;4.788;2023-02-23T14:27:17;30.33;;;16.42;;
47219;SDS011;32961;51.936;4.788;2023-02-23T14:30:10;33.20;;;17.15;;
47219;SDS011;32961;51.936;4.788;2023-02-23T14:32:46;29.35;;;16.52;;
47219;SDS011;32961;51.936;4.788;2023-02-23T14:38:09;35.88;;;18.45;;
47219;SDS011;32961;51.936;4.788;2023-02-23T14:40:59;33.08;;;17.45;;
47219;SDS011;32961;51.936;4.788;2023-02-23T14:43:32;33.50;;;18.35;;
47219;SDS011;32961;51.936;4.788;2023-02-23T14:46:10;34.22;;;17.25;;
47219;SDS011;32961;51.936;4.788;2023-02-23T14:48:42;35.13;;;19.40;;
47219;SDS011;32961;51.936;4.788;2023-02-23T14:51:12;32.30;;;18.20;;
47219;SDS011;32961;51.936;4.788;2023-02-23T14:53:46;35.08;;;17.83;;
47219;SDS011;32961;51.936;4.788;2023-02-23T14:56:18;31.10;;;17.38;;
47219;SDS011;32961;51.936;4.788;2023-02-23T14:58:57;33.50;;;17.42;;
47219;SDS011;32961;51.936;4.788;2023-02-23T15:01:31;36.80;;;18.63;;
47219;SDS011;32961;51.936;4.788;2023-02-23T15:04:04;36.78;;;18.08;;
47219;SDS011;32961;51.936;4.788;2023-02-23T15:06:33;33.88;;;18.85;;
47219;SDS011;32961;51.936;4.788;2023-02-23T15:09:02;33.33;;;17.83;;
47219;SDS011;32961;51.936;4.788;2023-02-23T15:11:30;31.20;;;16.17;;
47219;SDS011;32961;51.936;4.788;2023-02-23T15:13:59;29.23;;;16.00;;
47219;SDS011;32961;51.936;4.788;2023-02-23T15:16:28;33.85;;;16.23;;
47219;SDS011;32961;51.936;4.788;2023-02-23T15:19:00;32.65;;;15.88;;
47219;SDS011;32961;51.936;4.788;2023-02-23T15:21:30;34.38;;;15.80;;
47219;SDS011;32961;51.936;4.788;2023-02-23T15:24:01;34.63;;;17.60;;
47219;SDS011;32961;51.936;4.788;2023-02-23T15:26:33;34.28;;;15.90;;
47219;SDS011;32961;51.936;4.788;2023-02-23T15:29:11;34.45;;;17.08;;